Time,TemperatureF,DewpointF,PressureIn,WindDirection,WindDirectionDegrees,WindSpeedMPH,WindSpeedGustMPH,Humidity,HourlyPrecipIn,Conditions,Clouds,dailyrainin,SoftwareType,DateUTC
2013-05-06 00:02:00,58.0,48.0,30.06,NNW,340,0.0,0.0,69,0.00,,,0.00,,2013-05-06 05:02:00,
2013-05-06 00:12:00,58.0,48.0,30.06,NNW,340,0.0,0.0,69,0.00,,,0.00,,2013-05-06 05:12:00,
2013-05-06 00:22:00,57.0,48.0,30.07,NNW,339,0.0,0.0,71,0.00,,,0.00,,2013-05-06 05:22:00,
2013-05-06 00:32:00,56.0,47.0,30.07,NNW,340,0.0,0.0,73,0.00,,,0.00,,2013-05-06 05:32:00,
2013-05-06 00:42:00,56.0,47.0,30.07,NNW,340,0.0,0.0,73,0.00,,,0.00,,2013-05-06 05:42:00,
2013-05-06 00:52:00,55.0,47.0,30.07,NNW,339,0.0,0.0,75,0.00,,,0.00,,2013-05-06 05:52:00,
2013-05-06 01:02:00,54.0,47.0,30.08,NNW,340,0.0,0.0,76,0.00,,,0.00,,2013-05-06 06:02:00,
2013-05-06 01:12:00,54.0,47.0,30.08,NNW,340,0.0,0.0,76,0.00,,,0.00,,2013-05-06 06:12:00,
2013-05-06 01:21:00,54.0,47.0,30.07,NNW,339,0.0,0.0,78,0.00,,,0.00,,2013-05-06 06:21:00,
2013-05-06 01:32:00,53.0,47.0,30.07,NNW,339,0.0,0.0,80,0.00,,,0.00,,2013-05-06 06:32:00,
2013-05-06 01:42:00,53.0,47.0,30.07,NNW,339,0.0,0.0,80,0.00,,,0.00,,2013-05-06 06:42:00,
2013-05-06 01:52:00,53.0,47.0,30.07,NNW,339,0.0,0.0,80,0.00,,,0.00,,2013-05-06 06:52:00,
2013-05-06 02:01:00,53.0,47.0,30.07,NNW,340,0.0,0.0,80,0.00,,,0.00,,2013-05-06 07:01:00,
2013-05-06 02:11:00,53.0,47.0,30.07,NNW,340,0.0,0.0,80,0.00,,,0.00,,2013-05-06 07:11:00,
2013-05-06 02:22:00,53.0,47.0,30.07,NNW,340,0.0,0.0,80,0.00,,,0.00,,2013-05-06 07:22:00,
2013-05-06 02:31:00,52.0,46.0,30.07,NNW,340,0.0,0.0,81,0.00,,,0.00,,2013-05-06 07:31:00,
2013-05-06 02:42:00,52.0,46.0,30.07,NNW,340,0.0,0.0,81,0.00,,,0.00,,2013-05-06 07:42:00,
2013-05-06 02:52:00,52.0,47.0,30.07,NNW,340,0.0,2.0,82,0.00,,,0.00,,2013-05-06 07:52:00,
2013-05-06 03:01:00,52.0,47.0,30.06,NNW,340,0.0,1.0,83,0.00,,,0.00,,2013-05-06 08:01:00,
2013-05-06 03:12:00,52.0,47.0,30.06,NNW,340,0.0,1.0,83,0.00,,,0.00,,2013-05-06 08:12:00,
2013-05-06 03:22:00,51.0,46.0,30.06,NNW,339,0.0,2.0,83,0.00,,,0.00,,2013-05-06 08:22:00,
2013-05-06 03:31:00,51.0,46.0,30.06,NNW,339,0.0,3.0,84,0.00,,,0.00,,2013-05-06 08:31:00,
2013-05-06 03:41:00,51.0,46.0,30.06,NNW,339,0.0,3.0,84,0.00,,,0.00,,2013-05-06 08:41:00,
2013-05-06 03:52:00,51.0,46.0,30.06,NNW,339,0.0,1.0,84,0.00,,,0.00,,2013-05-06 08:52:00,
2013-05-06 04:01:00,51.0,46.0,30.05,NNW,340,0.0,0.0,84,0.00,,,0.00,,2013-05-06 09:01:00,
2013-05-06 04:11:00,51.0,46.0,30.05,NNW,340,0.0,0.0,84,0.00,,,0.00,,2013-05-06 09:11:00,
2013-05-06 04:22:00,50.0,46.0,30.05,NNW,339,0.0,0.0,85,0.00,,,0.00,,2013-05-06 09:22:00,
2013-05-06 04:32:00,50.0,46.0,30.06,NNW,340,0.0,0.0,86,0.00,,,0.00,,2013-05-06 09:32:00,
2013-05-06 04:42:00,50.0,46.0,30.06,NNW,340,0.0,0.0,86,0.00,,,0.00,,2013-05-06 09:42:00,
2013-05-06 04:53:00,50.0,46.0,30.05,NNW,340,0.0,0.0,86,0.00,,,0.00,,2013-05-06 09:53:00,
2013-05-06 05:02:00,50.0,46.0,30.06,NNW,340,0.0,2.0,86,0.00,,,0.00,,2013-05-06 10:02:00,
2013-05-06 05:12:00,50.0,46.0,30.06,NNW,340,0.0,2.0,86,0.00,,,0.00,,2013-05-06 10:12:00,
2013-05-06 05:22:00,50.0,46.0,30.06,NNW,338,3.0,6.0,86,0.00,,,0.00,,2013-05-06 10:22:00,
2013-05-06 05:32:00,50.0,46.0,30.06,NNW,338,1.0,3.0,85,0.00,,,0.00,,2013-05-06 10:32:00,
2013-05-06 05:41:00,50.0,46.0,30.06,NNW,338,1.0,3.0,85,0.00,,,0.00,,2013-05-06 10:41:00,
2013-05-06 05:52:00,50.0,46.0,30.06,NNW,338,2.0,5.0,85,0.00,,,0.00,,2013-05-06 10:52:00,
2013-05-06 06:02:00,50.0,46.0,30.06,NNW,338,1.0,3.0,85,0.00,,,0.00,,2013-05-06 11:02:00,
2013-05-06 06:12:00,50.0,46.0,30.06,NNW,338,1.0,3.0,85,0.00,,,0.00,,2013-05-06 11:12:00,
2013-05-06 06:22:00,50.0,46.0,30.06,NNW,338,0.0,1.0,85,0.00,,,0.00,,2013-05-06 11:22:00,
2013-05-06 06:31:00,50.0,46.0,30.07,NNW,338,0.0,0.0,86,0.00,,,0.00,,2013-05-06 11:31:00,
2013-05-06 06:42:00,50.0,46.0,30.07,NNW,338,0.0,0.0,86,0.00,,,0.00,,2013-05-06 11:42:00,
2013-05-06 06:52:00,49.0,45.0,30.07,NNW,338,0.0,0.0,85,0.00,,,0.00,,2013-05-06 11:52:00,
2013-05-06 07:01:00,49.0,45.0,30.07,NNW,338,0.0,0.0,87,0.00,,,0.00,,2013-05-06 12:01:00,
2013-05-06 07:12:00,49.0,45.0,30.07,NNW,338,0.0,0.0,87,0.00,,,0.00,,2013-05-06 12:12:00,
2013-05-06 07:21:00,49.0,45.0,30.08,NNW,338,0.0,1.0,87,0.00,,,0.00,,2013-05-06 12:21:00,
2013-05-06 07:32:00,49.0,45.0,30.08,NNW,338,0.0,0.0,87,0.00,,,0.00,,2013-05-06 12:32:00,
2013-05-06 07:41:00,49.0,45.0,30.08,NNW,338,0.0,0.0,87,0.00,,,0.00,,2013-05-06 12:41:00,
2013-05-06 07:52:00,50.0,46.0,30.08,NNW,338,0.0,0.0,87,0.00,,,0.00,,2013-05-06 12:52:00,
2013-05-06 08:01:00,52.0,47.0,30.08,NNW,338,0.0,1.0,84,0.00,,,0.00,,2013-05-06 13:01:00,
2013-05-06 08:11:00,52.0,47.0,30.08,NNW,338,0.0,1.0,84,0.00,,,0.00,,2013-05-06 13:11:00,
2013-05-06 08:21:00,53.0,48.0,30.08,NNW,338,2.0,3.0,82,0.00,,,0.00,,2013-05-06 13:21:00,
2013-05-06 08:32:00,55.0,49.0,30.09,NNW,338,0.0,3.0,80,0.00,,,0.00,,2013-05-06 13:32:00,
2013-05-06 08:42:00,55.0,49.0,30.09,NNW,338,0.0,3.0,80,0.00,,,0.00,,2013-05-06 13:42:00,
2013-05-06 08:52:00,56.0,49.0,30.09,NNW,338,1.0,3.0,77,0.00,,,0.00,,2013-05-06 13:52:00,
2013-05-06 09:01:00,58.0,50.0,30.10,NNW,338,1.0,3.0,74,0.00,,,0.00,,2013-05-06 14:01:00,
2013-05-06 09:11:00,59.0,50.0,30.10,NNW,338,1.0,3.0,72,0.00,,,0.00,,2013-05-06 14:11:00,
2013-05-06 09:21:00,59.0,50.0,30.10,NNW,338,1.0,3.0,72,0.00,,,0.00,,2013-05-06 14:21:00,
2013-05-06 09:32:00,60.0,50.0,30.10,NNW,338,0.0,5.0,70,0.00,,,0.00,,2013-05-06 14:32:00,
2013-05-06 09:42:00,61.0,50.0,30.10,NNW,338,2.0,6.0,68,0.00,,,0.00,,2013-05-06 14:42:00,
2013-05-06 09:52:00,61.0,50.0,30.10,NNW,338,2.0,6.0,68,0.00,,,0.00,,2013-05-06 14:52:00,
2013-05-06 10:01:00,63.0,51.0,30.10,NW,312,5.0,7.0,65,0.00,,,0.00,,2013-05-06 15:01:00,
2013-05-06 10:11:00,63.0,51.0,30.10,NW,312,5.0,7.0,65,0.00,,,0.00,,2013-05-06 15:11:00,
2013-05-06 10:21:00,63.0,51.0,30.10,WNW,303,4.0,7.0,64,0.00,,,0.00,,2013-05-06 15:21:00,
2013-05-06 10:33:00,65.0,52.0,30.10,NW,309,5.0,8.0,62,0.00,,,0.00,,2013-05-06 15:33:00,
2013-05-06 10:42:00,65.0,52.0,30.10,NW,309,5.0,8.0,62,0.00,,,0.00,,2013-05-06 15:42:00,
2013-05-06 10:53:00,66.0,52.0,30.11,NW,311,5.0,8.0,60,0.00,,,0.00,,2013-05-06 15:53:00,
2013-05-06 11:03:00,66.0,52.0,30.11,NW,317,0.0,9.0,60,0.00,,,0.00,,2013-05-06 16:03:00,
2013-05-06 11:13:00,66.0,52.0,30.11,NW,317,0.0,9.0,60,0.00,,,0.00,,2013-05-06 16:13:00,
2013-05-06 11:23:00,67.0,52.0,30.11,NW,304,3.0,8.0,58,0.00,,,0.00,,2013-05-06 16:23:00,
2013-05-06 11:32:00,67.0,52.0,30.11,NW,311,5.0,10.0,59,0.00,,,0.00,,2013-05-06 16:32:00,
2013-05-06 11:41:00,67.0,52.0,30.11,NW,311,5.0,10.0,59,0.00,,,0.00,,2013-05-06 16:41:00,
2013-05-06 11:52:00,67.0,51.0,30.10,West,280,3.0,8.0,57,0.00,,,0.00,,2013-05-06 16:52:00,
2013-05-06 12:02:00,68.0,52.0,30.09,WNW,287,5.0,12.0,56,0.00,,,0.00,,2013-05-06 17:02:00,
2013-05-06 12:12:00,68.0,52.0,30.09,WNW,287,5.0,12.0,56,0.00,,,0.00,,2013-05-06 17:12:00,
2013-05-06 12:23:00,69.0,53.0,30.09,WNW,295,1.0,9.0,56,0.00,,,0.00,,2013-05-06 17:23:00,
2013-05-06 12:31:00,70.0,53.0,30.08,NE,46,1.0,7.0,55,0.00,,,0.00,,2013-05-06 17:31:00,
2013-05-06 12:42:00,70.0,53.0,30.08,NE,46,1.0,7.0,55,0.00,,,0.00,,2013-05-06 17:42:00,
2013-05-06 12:52:00,71.0,53.0,30.07,NW,313,5.0,9.0,53,0.00,,,0.00,,2013-05-06 17:52:00,
2013-05-06 13:01:00,71.0,52.0,30.06,NNE,13,1.0,6.0,52,0.00,,,0.00,,2013-05-06 18:01:00,
2013-05-06 13:12:00,71.0,52.0,30.06,NNE,13,1.0,6.0,52,0.00,,,0.00,,2013-05-06 18:12:00,
2013-05-06 13:21:00,71.0,51.0,30.06,NNW,329,7.0,10.0,50,0.00,,,0.00,,2013-05-06 18:21:00,
2013-05-06 13:31:00,72.0,52.0,30.05,NNE,27,2.0,6.0,50,0.00,,,0.00,,2013-05-06 18:31:00,
2013-05-06 13:43:00,72.0,52.0,30.05,NNE,27,2.0,6.0,50,0.00,,,0.00,,2013-05-06 18:43:00,
2013-05-06 13:52:00,73.0,53.0,30.04,NNE,28,1.0,5.0,50,0.00,,,0.00,,2013-05-06 18:52:00,
2013-05-06 14:01:00,74.0,54.0,30.05,NE,44,0.0,6.0,49,0.00,,,0.00,,2013-05-06 19:01:00,
2013-05-06 14:11:00,74.0,54.0,30.05,NE,44,0.0,6.0,49,0.00,,,0.00,,2013-05-06 19:11:00,
2013-05-06 14:22:00,75.0,53.0,30.03,NE,51,6.0,10.0,46,0.00,,,0.00,,2013-05-06 19:22:00,
2013-05-06 14:32:00,75.0,53.0,30.03,NNE,26,2.0,7.0,47,0.00,,,0.00,,2013-05-06 19:32:00,
2013-05-06 14:41:00,75.0,53.0,30.03,NNE,26,2.0,7.0,47,0.00,,,0.00,,2013-05-06 19:41:00,
2013-05-06 14:52:00,75.0,54.0,30.03,NNW,346,1.0,7.0,48,0.00,,,0.00,,2013-05-06 19:52:00,
2013-05-06 15:02:00,76.0,54.0,30.02,ENE,76,1.0,5.0,47,0.00,,,0.00,,2013-05-06 20:02:00,
2013-05-06 15:11:00,76.0,54.0,30.02,ENE,76,1.0,5.0,47,0.00,,,0.00,,2013-05-06 20:11:00,
2013-05-06 15:21:00,76.0,54.0,30.01,North,0,1.0,3.0,46,0.00,,,0.00,,2013-05-06 20:21:00,
2013-05-06 15:32:00,76.0,54.0,30.00,WNW,292,3.0,8.0,47,0.00,,,0.00,,2013-05-06 20:32:00,
2013-05-06 15:42:00,76.0,54.0,30.00,WNW,292,3.0,8.0,47,0.00,,,0.00,,2013-05-06 20:42:00,
2013-05-06 15:52:00,77.0,54.0,30.00,SE,126,4.0,8.0,45,0.00,,,0.00,,2013-05-06 20:52:00,
2013-05-06 16:01:00,76.0,52.0,29.99,North,350,2.0,7.0,44,0.00,,,0.00,,2013-05-06 21:01:00,
2013-05-06 16:11:00,76.0,52.0,29.99,North,350,2.0,7.0,44,0.00,,,0.00,,2013-05-06 21:11:00,
2013-05-06 16:21:00,76.0,53.0,29.98,NNW,348,1.0,7.0,45,0.00,,,0.00,,2013-05-06 21:21:00,
2013-05-06 16:32:00,76.0,53.0,29.98,NNW,331,3.0,7.0,45,0.00,,,0.00,,2013-05-06 21:32:00,
2013-05-06 16:42:00,76.0,53.0,29.98,NNW,331,3.0,7.0,45,0.00,,,0.00,,2013-05-06 21:42:00,
2013-05-06 16:53:00,76.0,53.0,29.98,NW,314,1.0,5.0,45,0.00,,,0.00,,2013-05-06 21:53:00,
2013-05-06 17:03:00,76.0,54.0,29.98,NW,314,1.0,5.0,47,0.00,,,0.00,,2013-05-06 22:03:00,
2013-05-06 17:12:00,76.0,54.0,29.98,NW,314,1.0,5.0,47,0.00,,,0.00,,2013-05-06 22:12:00,
2013-05-06 17:22:00,77.0,55.0,29.98,NW,307,3.0,5.0,46,0.00,,,0.00,,2013-05-06 22:22:00,
2013-05-06 17:33:00,76.0,54.0,29.98,WNW,296,5.0,9.0,46,0.00,,,0.00,,2013-05-06 22:33:00,
2013-05-06 17:45:00,76.0,54.0,29.98,WNW,296,5.0,9.0,46,0.00,,,0.00,,2013-05-06 22:45:00,
2013-05-06 17:52:00,76.0,54.0,29.98,West,272,5.0,13.0,46,0.00,,,0.00,,2013-05-06 22:52:00,
2013-05-06 18:02:00,75.0,53.0,29.97,West,273,3.0,7.0,46,0.00,,,0.00,,2013-05-06 23:02:00,
2013-05-06 18:12:00,75.0,53.0,29.97,West,273,3.0,7.0,46,0.00,,,0.00,,2013-05-06 23:12:00,
2013-05-06 18:22:00,75.0,53.0,29.98,SSW,194,6.0,8.0,47,0.00,,,0.00,,2013-05-06 23:22:00,
2013-05-06 18:31:00,74.0,53.0,29.98,South,189,3.0,9.0,48,0.00,,,0.00,,2013-05-06 23:31:00,
2013-05-06 18:41:00,74.0,53.0,29.98,South,189,3.0,9.0,48,0.00,,,0.00,,2013-05-06 23:41:00,
2013-05-06 18:52:00,74.0,54.0,29.98,South,180,6.0,12.0,50,0.00,,,0.00,,2013-05-06 23:52:00,
2013-05-06 19:01:00,73.0,53.0,29.98,SSW,194,5.0,9.0,50,0.00,,,0.00,,2013-05-07 00:01:00,
2013-05-06 19:11:00,73.0,53.0,29.98,SSW,194,5.0,9.0,50,0.00,,,0.00,,2013-05-07 00:11:00,
2013-05-06 19:21:00,73.0,54.0,29.97,South,190,5.0,8.0,51,0.00,,,0.00,,2013-05-07 00:21:00,
2013-05-06 19:31:00,73.0,54.0,29.97,South,186,3.0,6.0,52,0.00,,,0.00,,2013-05-07 00:31:00,
2013-05-06 19:41:00,73.0,54.0,29.97,South,186,3.0,6.0,52,0.00,,,0.00,,2013-05-07 00:41:00,
2013-05-06 19:52:00,72.0,54.0,29.97,South,184,2.0,5.0,53,0.00,,,0.00,,2013-05-07 00:52:00,
2013-05-06 20:01:00,72.0,54.0,29.97,South,184,2.0,5.0,54,0.00,,,0.00,,2013-05-07 01:01:00,
2013-05-06 20:11:00,72.0,54.0,29.97,South,184,2.0,5.0,54,0.00,,,0.00,,2013-05-07 01:11:00,
2013-05-06 20:21:00,71.0,54.0,29.97,South,184,1.0,3.0,56,0.00,,,0.00,,2013-05-07 01:21:00,
2013-05-06 20:32:00,71.0,54.0,29.98,South,184,2.0,3.0,56,0.00,,,0.00,,2013-05-07 01:32:00,
2013-05-06 20:42:00,71.0,54.0,29.98,South,184,2.0,3.0,56,0.00,,,0.00,,2013-05-07 01:42:00,
2013-05-06 20:53:00,70.0,54.0,29.98,South,184,0.0,0.0,57,0.00,,,0.00,,2013-05-07 01:53:00,
2013-05-06 21:02:00,70.0,55.0,29.98,South,184,0.0,0.0,59,0.00,,,0.00,,2013-05-07 02:02:00,
2013-05-06 21:11:00,70.0,55.0,29.98,South,184,0.0,0.0,59,0.00,,,0.00,,2013-05-07 02:11:00,
2013-05-06 21:21:00,69.0,55.0,29.98,South,184,0.0,0.0,60,0.00,,,0.00,,2013-05-07 02:21:00,
2013-05-06 21:31:00,69.0,55.0,29.98,South,184,0.0,0.0,61,0.00,,,0.00,,2013-05-07 02:31:00,
2013-05-06 21:41:00,69.0,55.0,29.98,South,184,0.0,0.0,61,0.00,,,0.00,,2013-05-07 02:41:00,
2013-05-06 21:52:00,68.0,55.0,29.98,South,184,0.0,0.0,63,0.00,,,0.00,,2013-05-07 02:52:00,
2013-05-06 22:01:00,68.0,55.0,29.99,South,184,0.0,0.0,64,0.00,,,0.00,,2013-05-07 03:01:00,
2013-05-06 22:11:00,68.0,55.0,29.99,South,184,0.0,0.0,64,0.00,,,0.00,,2013-05-07 03:11:00,
2013-05-06 22:21:00,67.0,55.0,29.99,South,184,0.0,0.0,65,0.00,,,0.00,,2013-05-07 03:21:00,
2013-05-06 22:32:00,67.0,55.0,29.99,South,184,0.0,0.0,66,0.00,,,0.00,,2013-05-07 03:32:00,
2013-05-06 22:42:00,67.0,55.0,29.99,South,184,0.0,0.0,66,0.00,,,0.00,,2013-05-07 03:42:00,
2013-05-06 22:53:00,67.0,56.0,29.99,South,184,0.0,0.0,67,0.00,,,0.00,,2013-05-07 03:53:00,
2013-05-06 23:02:00,67.0,56.0,29.99,South,184,0.0,0.0,67,0.00,,,0.00,,2013-05-07 04:02:00,
2013-05-06 23:12:00,67.0,56.0,29.99,South,184,0.0,0.0,67,0.00,,,0.00,,2013-05-07 04:12:00,
2013-05-06 23:23:00,66.0,55.0,29.99,South,184,0.0,0.0,67,0.00,,,0.00,,2013-05-07 04:23:00,
2013-05-06 23:33:00,66.0,56.0,29.99,South,184,0.0,0.0,69,0.00,,,0.00,,2013-05-07 04:33:00,
2013-05-06 23:42:00,66.0,56.0,29.99,South,184,0.0,0.0,69,0.00,,,0.00,,2013-05-07 04:42:00,
2013-05-06 23:53:00,65.0,55.0,29.99,South,184,0.0,0.0,70,0.00,,,0.00,,2013-05-07 04:53:00,